Time;durP1;ratioP1;P1;durP2;ratioP2;P2;SDS_P1;SDS_P2;PMS_P1;PMS_P2;Temp;Humidity;BMP_temperature;BMP_pressure;BME280_temperature;BME280_humidity;BME280_pressure;Samples;Min_cycle;Max_cycle;Signal;HPM_P1;HPM_P2
2023/06/04 00:01:12;;;;;;;;;;;;;;;;;;5073714;28;1123;-66
2023/06/04 00:03:37;;;;;;;;;;;;;;;;;;5073749;28;896;-66
2023/06/04 00:06:02;;;;;;;;;;;;;;;;;;5055102;28;1262;-66
2023/06/04 00:08:27;;;;;;;;;;;;;;;;;;5055431;28;908;-66
2023/06/04 00:10:53;;;;;;;;;;;;;;;;;;5072425;28;893;-65
2023/06/04 00:13:18;;;;;;;;;;;;;;;;;;5073403;28;820;-65
2023/06/04 00:15:43;;;;;;;;;;;;;;;;;;5054673;28;1914;-65
2023/06/04 00:18:10;;;;;;;;;;;;;;;;;;5072916;28;935;-66
2023/06/04 00:20:36;;;;;;;;;;;;;;;;;;5072488;28;1055;-66
2023/06/04 00:23:01;;;;;;;;;;;;;;;;;;5072251;28;941;-67
2023/06/04 00:25:26;;;;;;;;;;;;;;;;;;5054923;28;931;-66
2023/06/04 00:27:52;;;;;;;;;;;;;;;;;;5072613;28;802;-66
2023/06/04 00:30:17;;;;;;;;;;;;;;;;;;5072503;28;829;-66
2023/06/04 00:32:42;;;;;;;;;;;;;;;;;;5072881;28;888;-71
2023/06/04 00:35:09;;;;;;;;;;;;;;;;;;5038681;28;1930;-73
2023/06/04 00:37:34;;;;;;;;;;;;;;;;;;5073210;28;837;-70
2023/06/04 00:40:00;;;;;;;;;;;;;;;;;;5072071;28;801;-72
2023/06/04 00:42:25;;;;;;;;;;;;;;;;;;5054988;28;884;-71
2023/06/04 00:44:51;;;;;;;;;;;;;;;;;;5072767;28;817;-72
2023/06/04 00:47:18;;;;;;;;;;;;;;;;;;5038275;28;1260;-71
2023/06/04 00:49:44;;;;;;;;;;;;;;;;;;5054866;28;1215;-70
2023/06/04 00:52:10;;;;;;;;;;;;;;;;;;5073162;28;805;-71
2023/06/04 00:54:36;;;;;;;;;;;;;;;;;;5072681;28;1901;-71
2023/06/04 00:57:01;;;;;;;;;;;;;;;;;;5054701;28;758;-71
2023/06/04 00:59:27;;;;;;;;;;;;;;;;;;5072746;28;1101;-72
2023/06/04 01:01:58;;;;;;;;;;;;;;;;;;5072125;28;836;-71
2023/06/04 01:04:27;;;;;;;;;;;;;;;;;;5072472;28;809;-72
2023/06/04 01:06:55;;;;;;;;;;;;;;;;;;5072128;28;781;-71
2023/06/04 01:09:23;;;;;;;;;;;;;;;;;;5072298;28;793;-71
2023/06/04 01:11:48;;;;;;;;;;;;;;;;;;5072424;28;983;-71
2023/06/04 01:14:15;;;;;;;;;;;;;;;;;;5037459;28;1361;-71
2023/06/04 01:17:01;;;;;;;;;;;;;;;;;;5071982;28;1910;-71
2023/06/04 01:19:42;;;;;;;;;;;;;;;;;;5071779;28;845;-71
2023/06/04 01:22:20;;;;;;;;;;;;;;;;;;5071457;28;869;-71
2023/06/04 01:24:51;;;;;;;;;;;;;;;;;;5072159;28;841;-71
2023/06/04 01:27:17;;;;;;;;;;;;;;;;;;5072106;28;814;-66
2023/06/04 01:29:42;;;;;;;;;;;;;;;;;;5054179;28;857;-66
2023/06/04 01:32:07;;;;;;;;;;;;;;;;;;5037693;28;1099;-67
2023/06/04 01:34:43;;;;;;;;;;;;;;;;;;5054326;28;1898;-66
2023/06/04 01:37:11;;;;;;;;;;;;;;;;;;5072466;28;900;-67
2023/06/04 01:39:36;;;;;;;;;;;;;;;;;;5038680;28;908;-71
2023/06/04 01:42:02;;;;;;;;;;;;;;;;;;5071556;28;918;-71
2023/06/04 01:44:27;;;;;;;;;;;;;;;;;;5072668;28;908;-71
2023/06/04 01:46:53;;;;;;;;;;;;;;;;;;5054519;28;1495;-72
2023/06/04 01:49:18;;;;;;;;;;;;;;;;;;5072199;28;888;-71
2023/06/04 01:51:43;;;;;;;;;;;;;;;;;;5042016;28;1328;-71
2023/06/04 01:54:08;;;;;;;;;;;;;;;;;;5041577;28;1249;-71
2023/06/04 01:56:34;;;;;;;;;;;;;;;;;;5058242;28;1969;-71
2023/06/04 01:59:01;;;;;;;;;;;;;;;;;;5076356;28;781;-71
2023/06/04 02:01:26;;;;;;;;;;;;;;;;;;5058670;28;1129;-71
2023/06/04 02:03:52;;;;;;;;;;;;;;;;;;5076021;28;778;-71
2023/06/04 02:06:17;;;;;;;;;;;;;;;;;;5057862;28;1298;-71
2023/06/04 02:08:43;;;;;;;;;;;;;;;;;;5058262;28;1286;-71
2023/06/04 02:11:08;;;;;;;;;;;;;;;;;;5057701;28;1218;-71
2023/06/04 02:13:34;;;;;;;;;;;;;;;;;;5075801;28;757;-71
2023/06/04 02:15:59;;;;;;;;;;;;;;;;;;5075367;28;1979;-71
2023/06/04 02:18:24;;;;;;;;;;;;;;;;;;5075540;28;825;-72
2023/06/04 02:20:50;;;;;;;;;;;;;;;;;;5074892;28;904;-71
2023/06/04 02:23:17;;;;;;;;;;;;;;;;;;5057306;28;1020;-72
2023/06/04 02:25:45;;;;;;;;;;;;;;;;;;5057467;28;1220;-71
2023/06/04 02:28:11;;;;;;;;;;;;;;;;;;5074972;28;880;-71
2023/06/04 02:30:36;;;;;;;;;;;;;;;;;;5057240;28;1248;-71
2023/06/04 02:33:02;;;;;;;;;;;;;;;;;;5040261;28;1165;-71
2023/06/04 02:35:30;;;;;;;;;;;;;;;;;;5040164;28;1931;-71
2023/06/04 02:37:58;;;;;;;;;;;;;;;;;;5056953;28;897;-71
2023/06/04 02:40:26;;;;;;;;;;;;;;;;;;5075329;28;861;-71
2023/06/04 02:42:55;;;;;;;;;;;;;;;;;;5074667;28;1042;-71
2023/06/04 02:45:21;;;;;;;;;;;;;;;;;;5056857;28;1470;-71
2023/06/04 02:47:46;;;;;;;;;;;;;;;;;;5074789;28;821;-71
2023/06/04 02:50:13;;;;;;;;;;;;;;;;;;5056711;28;897;-71
2023/06/04 02:52:39;;;;;;;;;;;;;;;;;;5056825;28;1314;-70
2023/06/04 02:55:06;;;;;;;;;;;;;;;;;;5056827;28;1889;-70
2023/06/04 02:57:31;;;;;;;;;;;;;;;;;;5057464;28;856;-70
2023/06/04 02:59:57;;;;;;;;;;;;;;;;;;5040088;28;1317;-70
2023/06/04 03:02:22;;;;;;;;;;;;;;;;;;5055786;28;1338;-71
2023/06/04 03:04:50;;;;;;;;;;;;;;;;;;5056642;28;1184;-70
2023/06/04 03:07:20;;;;;;;;;;;;;;;;;;5057063;28;826;-70
2023/06/04 03:09:45;;;;;;;;;;;;;;;;;;5075046;28;797;-70
2023/06/04 03:12:11;;;;;;;;;;;;;;;;;;5056850;28;864;-70
2023/06/04 03:14:36;;;;;;;;;;;;;;;;;;5056385;28;1978;-70
2023/06/04 03:17:10;;;;;;;;;;;;;;;;;;5039405;28;1422;-70
2023/06/04 03:19:40;;;;;;;;;;;;;;;;;;5040383;28;1457;-70
2023/06/04 03:22:05;;;;;;;;;;;;;;;;;;5039126;28;1376;-70
2023/06/04 03:24:35;;;;;;;;;;;;;;;;;;5055581;28;1078;-70
2023/06/04 03:27:00;;;;;;;;;;;;;;;;;;5073783;28;888;-70
2023/06/04 03:29:26;;;;;;;;;;;;;;;;;;5073545;28;940;-70
2023/06/04 03:31:51;;;;;;;;;;;;;;;;;;5055760;28;1200;-70
2023/06/04 03:34:16;;;;;;;;;;;;;;;;;;5055312;28;1310;-70
2023/06/04 03:36:42;;;;;;;;;;;;;;;;;;5056018;28;1910;-70
2023/06/04 03:39:07;;;;;;;;;;;;;;;;;;5055358;28;1081;-71
2023/06/04 03:41:32;;;;;;;;;;;;;;;;;;5055540;28;1243;-71
2023/06/04 03:43:58;;;;;;;;;;;;;;;;;;5055324;28;1202;-70
2023/06/04 03:46:26;;;;;;;;;;;;;;;;;;5055374;28;853;-71
2023/06/04 03:48:51;;;;;;;;;;;;;;;;;;5073294;28;844;-70
2023/06/04 03:51:17;;;;;;;;;;;;;;;;;;5072921;28;1232;-70
2023/06/04 03:53:42;;;;;;;;;;;;;;;;;;5037539;28;1252;-71
2023/06/04 03:56:07;;;;;;;;;;;;;;;;;;5037767;28;1957;-71
2023/06/04 03:58:34;;;;;;;;;;;;;;;;;;5039078;28;1187;-70
2023/06/04 04:01:01;;;;;;;;;;;;;;;;;;5054862;28;1197;-70
2023/06/04 04:03:31;;;;;;;;;;;;;;;;;;5073377;28;786;-70
2023/06/04 04:05:57;;;;;;;;;;;;;;;;;;5055750;28;801;-70
2023/06/04 04:08:23;;;;;;;;;;;;;;;;;;5072647;28;1354;-70
2023/06/04 04:10:48;;;;;;;;;;;;;;;;;;5054106;28;1701;-70
2023/06/04 04:13:13;;;;;;;;;;;;;;;;;;5053985;28;951;-70
2023/06/04 04:15:39;;;;;;;;;;;;;;;;;;5054681;28;1965;-70
2023/06/04 04:18:04;;;;;;;;;;;;;;;;;;5038692;28;1355;-70
2023/06/04 04:20:29;;;;;;;;;;;;;;;;;;5055350;28;880;-70
2023/06/04 04:22:55;;;;;;;;;;;;;;;;;;5073698;28;959;-70
2023/06/04 04:25:20;;;;;;;;;;;;;;;;;;5055359;28;1215;-70
2023/06/04 04:27:48;;;;;;;;;;;;;;;;;;5073279;28;892;-70
2023/06/04 04:30:14;;;;;;;;;;;;;;;;;;5055623;28;851;-71
2023/06/04 04:32:48;;;;;;;;;;;;;;;;;;5054930;28;832;-70
2023/06/04 04:35:14;;;;;;;;;;;;;;;;;;5055321;28;1971;-70
2023/06/04 04:37:40;;;;;;;;;;;;;;;;;;5054522;28;1510;-70
2023/06/04 04:40:09;;;;;;;;;;;;;;;;;;5054305;28;833;-70
2023/06/04 04:42:34;;;;;;;;;;;;;;;;;;5037767;28;1359;-70
2023/06/04 04:45:00;;;;;;;;;;;;;;;;;;5037571;28;889;-70
2023/06/04 04:47:25;;;;;;;;;;;;;;;;;;5054194;28;829;-70
2023/06/04 04:49:50;;;;;;;;;;;;;;;;;;5072195;28;932;-70
2023/06/04 04:52:16;;;;;;;;;;;;;;;;;;5054121;28;841;-70
2023/06/04 04:54:41;;;;;;;;;;;;;;;;;;5037249;28;1898;-70
2023/06/04 04:57:07;;;;;;;;;;;;;;;;;;5037356;28;1257;-70
2023/06/04 04:59:32;;;;;;;;;;;;;;;;;;5053252;28;1141;-70
2023/06/04 05:01:57;;;;;;;;;;;;;;;;;;5052386;28;1229;-70
2023/06/04 05:04:23;;;;;;;;;;;;;;;;;;5070554;28;1148;-70
2023/06/04 05:06:48;;;;;;;;;;;;;;;;;;5060730;28;1213;-70
2023/06/04 05:09:13;;;;;;;;;;;;;;;;;;5071254;28;1133;-70
2023/06/04 05:11:38;;;;;;;;;;;;;;;;;;5053573;28;1240;-69
2023/06/04 05:14:04;;;;;;;;;;;;;;;;;;5053561;28;1053;-71
2023/06/04 05:16:29;;;;;;;;;;;;;;;;;;5053273;28;1951;-69
2023/06/04 05:18:56;;;;;;;;;;;;;;;;;;5053325;28;837;-69
2023/06/04 05:21:21;;;;;;;;;;;;;;;;;;5071358;28;810;-72
2023/06/04 05:23:48;;;;;;;;;;;;;;;;;;5053010;28;1140;-69
2023/06/04 05:26:13;;;;;;;;;;;;;;;;;;5052523;28;1196;-65
2023/06/04 05:28:43;;;;;;;;;;;;;;;;;;5052856;28;833;-65
2023/06/04 05:31:08;;;;;;;;;;;;;;;;;;5070786;28;895;-65
2023/06/04 05:33:33;;;;;;;;;;;;;;;;;;5071290;28;861;-70
2023/06/04 05:35:59;;;;;;;;;;;;;;;;;;5070587;28;1967;-70
2023/06/04 05:38:27;;;;;;;;;;;;;;;;;;5070771;28;960;-72
2023/06/04 05:40:56;;;;;;;;;;;;;;;;;;5053068;28;687;-72
2023/06/04 05:43:22;;;;;;;;;;;;;;;;;;5070727;28;888;-68
2023/06/04 05:45:47;;;;;;;;;;;;;;;;;;5052471;28;1465;-69
2023/06/04 05:48:13;;;;;;;;;;;;;;;;;;5071104;28;833;-69
2023/06/04 05:50:38;;;;;;;;;;;;;;;;;;5070790;28;845;-69
2023/06/04 05:53:03;;;;;;;;;;;;;;;;;;5052936;28;905;-68
2023/06/04 05:55:29;;;;;;;;;;;;;;;;;;5053197;28;1945;-69
2023/06/04 05:57:54;;;;;;;;;;;;;;;;;;5053011;28;872;-69
2023/06/04 06:00:21;;;;;;;;;;;;;;;;;;5041498;28;1317;-69
2023/06/04 06:02:48;;;;;;;;;;;;;;;;;;5031225;28;840;-68
2023/06/04 06:05:14;;;;;;;;;;;;;;;;;;5031097;28;821;-68
2023/06/04 06:07:39;;;;;;;;;;;;;;;;;;5029997;28;996;-69
2023/06/04 06:10:05;;;;;;;;;;;;;;;;;;5030941;28;876;-69
2023/06/04 06:12:30;;;;;;;;;;;;;;;;;;5031777;28;880;-68
2023/06/04 06:14:56;;;;;;;;;;;;;;;;;;5029900;28;1981;-68
2023/06/04 06:17:21;;;;;;;;;;;;;;;;;;5030253;28;778;-68
2023/06/04 06:19:46;;;;;;;;;;;;;;;;;;5029651;28;1381;-68
2023/06/04 06:22:12;;;;;;;;;;;;;;;;;;5030120;28;1193;-69
2023/06/04 06:24:37;;;;;;;;;;;;;;;;;;5013448;28;1462;-69
2023/06/04 06:27:02;;;;;;;;;;;;;;;;;;5029300;28;810;-69
2023/06/04 06:29:28;;;;;;;;;;;;;;;;;;5029668;28;1271;-69
2023/06/04 06:31:53;;;;;;;;;;;;;;;;;;5030360;28;1089;-68
2023/06/04 06:34:18;;;;;;;;;;;;;;;;;;5031174;28;905;-68
2023/06/04 06:36:44;;;;;;;;;;;;;;;;;;5030202;28;1910;-69
2023/06/04 06:39:10;;;;;;;;;;;;;;;;;;5033095;28;1219;-69
2023/06/04 06:41:35;;;;;;;;;;;;;;;;;;5016774;28;1466;-69
2023/06/04 06:44:01;;;;;;;;;;;;;;;;;;5034203;28;909;-69
2023/06/04 06:46:26;;;;;;;;;;;;;;;;;;5033368;28;1208;-69
2023/06/04 06:48:51;;;;;;;;;;;;;;;;;;5033326;28;1387;-69
2023/06/04 06:51:17;;;;;;;;;;;;;;;;;;5033134;28;1232;-69
2023/06/04 06:53:43;;;;;;;;;;;;;;;;;;5033385;28;876;-69
2023/06/04 06:56:08;;;;;;;;;;;;;;;;;;5033946;28;1894;-69
2023/06/04 06:58:33;;;;;;;;;;;;;;;;;;5034448;28;762;-69
2023/06/04 07:00:59;;;;;;;;;;;;;;;;;;5062315;28;1200;-69
2023/06/04 07:03:25;;;;;;;;;;;;;;;;;;5091753;28;1148;-69
2023/06/04 07:05:50;;;;;;;;;;;;;;;;;;5093367;28;1156;-69
2023/06/04 07:08:16;;;;;;;;;;;;;;;;;;5075871;28;1172;-69
2023/06/04 07:10:41;;;;;;;;;;;;;;;;;;5076091;28;813;-69
2023/06/04 07:13:06;;;;;;;;;;;;;;;;;;5075678;28;876;-69
2023/06/04 07:15:32;;;;;;;;;;;;;;;;;;5075360;28;1999;-66
2023/06/04 07:17:57;;;;;;;;;;;;;;;;;;5058814;28;1225;-66
2023/06/04 07:20:22;;;;;;;;;;;;;;;;;;5058678;28;1326;-66
2023/06/04 07:22:48;;;;;;;;;;;;;;;;;;5093613;28;921;-66
2023/06/04 07:25:13;;;;;;;;;;;;;;;;;;5058411;28;700;-66
2023/06/04 07:27:38;;;;;;;;;;;;;;;;;;5058493;28;1195;-66
2023/06/04 07:30:04;;;;;;;;;;;;;;;;;;5093506;28;825;-66
2023/06/04 07:32:29;;;;;;;;;;;;;;;;;;5091762;28;1152;-66
2023/06/04 07:34:55;;;;;;;;;;;;;;;;;;5092150;28;1949;-66
2023/06/04 07:37:20;;;;;;;;;;;;;;;;;;5058147;28;1370;-69
2023/06/04 07:39:45;;;;;;;;;;;;;;;;;;5093961;28;790;-68
2023/06/04 07:42:11;;;;;;;;;;;;;;;;;;5093581;28;1207;-69
2023/06/04 07:44:37;;;;;;;;;;;;;;;;;;5076513;28;1120;-69
2023/06/04 07:47:02;;;;;;;;;;;;;;;;;;5072659;28;1152;-70
2023/06/04 07:49:27;;;;;;;;;;;;;;;;;;5072694;28;1160;-69
2023/06/04 07:51:53;;;;;;;;;;;;;;;;;;5055675;28;1166;-68
2023/06/04 07:54:18;;;;;;;;;;;;;;;;;;5073434;28;853;-68
2023/06/04 07:56:43;;;;;;;;;;;;;;;;;;5074181;28;1964;-68
2023/06/04 07:59:09;;;;;;;;;;;;;;;;;;5055010;28;1392;-69
2023/06/04 08:01:34;;;;;;;;;;;;;;;;;;5039226;28;1643;-68
2023/06/04 08:03:59;;;;;;;;;;;;;;;;;;5054635;28;1443;-68
2023/06/04 08:06:26;;;;;;;;;;;;;;;;;;5073791;28;813;-69
2023/06/04 08:08:52;;;;;;;;;;;;;;;;;;5055532;28;1175;-68
2023/06/04 08:11:17;;;;;;;;;;;;;;;;;;5072156;28;762;-69
2023/06/04 08:13:43;;;;;;;;;;;;;;;;;;5054950;28;1429;-69
2023/06/04 08:16:09;;;;;;;;;;;;;;;;;;5038323;28;1910;-69
2023/06/04 08:18:37;;;;;;;;;;;;;;;;;;5072707;28;813;-69
2023/06/04 08:21:03;;;;;;;;;;;;;;;;;;5054163;28;1197;-69
2023/06/04 08:23:28;;;;;;;;;;;;;;;;;;5073030;28;885;-68
2023/06/04 08:25:54;;;;;;;;;;;;;;;;;;5072475;28;821;-68
2023/06/04 08:28:19;;;;;;;;;;;;;;;;;;5054391;28;833;-68
2023/06/04 08:30:45;;;;;;;;;;;;;;;;;;5054433;28;1359;-69
2023/06/04 08:33:11;;;;;;;;;;;;;;;;;;5072130;28;825;-69
2023/06/04 08:35:36;;;;;;;;;;;;;;;;;;5037663;28;1955;-69
2023/06/04 08:38:02;;;;;;;;;;;;;;;;;;5072191;28;988;-69
2023/06/04 08:40:27;;;;;;;;;;;;;;;;;;5054945;28;1318;-69
2023/06/04 08:42:58;;;;;;;;;;;;;;;;;;5072610;28;844;-69
2023/06/04 08:45:23;;;;;;;;;;;;;;;;;;5054081;28;1323;-65
2023/06/04 08:47:49;;;;;;;;;;;;;;;;;;5069205;28;1225;-68
2023/06/04 08:50:16;;;;;;;;;;;;;;;;;;5074040;28;921;-69
2023/06/04 08:52:42;;;;;;;;;;;;;;;;;;5074501;28;1270;-69
2023/06/04 08:55:08;;;;;;;;;;;;;;;;;;5092076;28;1894;-69
2023/06/04 08:57:34;;;;;;;;;;;;;;;;;;5074202;28;1235;-69
2023/06/04 09:00:00;;;;;;;;;;;;;;;;;;5072694;28;1300;-69
2023/06/04 09:02:27;;;;;;;;;;;;;;;;;;5057622;28;1189;-69
2023/06/04 09:04:53;;;;;;;;;;;;;;;;;;5092449;28;856;-70
2023/06/04 09:07:19;;;;;;;;;;;;;;;;;;5073702;28;1200;-69
2023/06/04 09:09:45;;;;;;;;;;;;;;;;;;5092150;28;940;-69
2023/06/04 09:12:11;;;;;;;;;;;;;;;;;;5074116;28;1223;-68
2023/06/04 09:14:37;;;;;;;;;;;;;;;;;;5073883;28;1959;-69
2023/06/04 09:17:02;;;;;;;;;;;;;;;;;;5092639;28;896;-68
2023/06/04 09:19:27;;;;;;;;;;;;;;;;;;5074948;28;904;-69
2023/06/04 09:21:54;;;;;;;;;;;;;;;;;;5092686;28;814;-65
2023/06/04 09:24:21;;;;;;;;;;;;;;;;;;5073870;28;924;-66
2023/06/04 09:26:46;;;;;;;;;;;;;;;;;;5073920;28;1212;-65
2023/06/04 09:29:12;;;;;;;;;;;;;;;;;;5091619;28;849;-65
2023/06/04 09:31:38;;;;;;;;;;;;;;;;;;5057667;28;1209;-65
2023/06/04 09:34:03;;;;;;;;;;;;;;;;;;5056671;28;1426;-65
2023/06/04 09:36:32;;;;;;;;;;;;;;;;;;5073549;28;1960;-65
2023/06/04 09:38:58;;;;;;;;;;;;;;;;;;5072879;28;1226;-65
2023/06/04 09:41:23;;;;;;;;;;;;;;;;;;5073358;28;902;-65
2023/06/04 09:43:49;;;;;;;;;;;;;;;;;;5056518;28;1467;-65
2023/06/04 09:46:16;;;;;;;;;;;;;;;;;;5072684;28;848;-65
2023/06/04 09:48:41;;;;;;;;;;;;;;;;;;5091917;28;793;-65
2023/06/04 09:51:11;;;;;;;;;;;;;;;;;;5071979;28;1342;-64
2023/06/04 09:53:37;;;;;;;;;;;;;;;;;;5072925;28;1401;-65
2023/06/04 09:56:06;;;;;;;;;;;;;;;;;;5072396;28;1905;-64
2023/06/04 09:58:32;;;;;;;;;;;;;;;;;;5090960;28;884;-65
2023/06/04 10:00:58;;;;;;;;;;;;;;;;;;5072199;28;1073;-64
2023/06/04 10:03:30;;;;;;;;;;;;;;;;;;5090702;28;809;-65
2023/06/04 10:05:57;;;;;;;;;;;;;;;;;;5091277;28;817;-68
2023/06/04 10:08:23;;;;;;;;;;;;;;;;;;5090707;28;897;-68
2023/06/04 10:10:50;;;;;;;;;;;;;;;;;;5091962;28;836;-68
2023/06/04 10:13:19;;;;;;;;;;;;;;;;;;5077220;28;1211;-68
2023/06/04 10:15:48;;;;;;;;;;;;;;;;;;5095798;28;1913;-68
2023/06/04 10:18:15;;;;;;;;;;;;;;;;;;5077092;28;809;-64
2023/06/04 10:20:40;;;;;;;;;;;;;;;;;;5094951;28;1066;-65
2023/06/04 10:23:07;;;;;;;;;;;;;;;;;;5075528;28;1365;-65
2023/06/04 10:25:34;;;;;;;;;;;;;;;;;;5077016;28;877;-65
2023/06/04 10:27:59;;;;;;;;;;;;;;;;;;5094486;28;920;-64
2023/06/04 10:30:25;;;;;;;;;;;;;;;;;;5059523;28;1463;-65
2023/06/04 10:32:50;;;;;;;;;;;;;;;;;;5094833;28;820;-64
2023/06/04 10:35:16;;;;;;;;;;;;;;;;;;5076177;28;1914;-65
2023/06/04 10:37:41;;;;;;;;;;;;;;;;;;5059685;28;1240;-69
2023/06/04 10:40:07;;;;;;;;;;;;;;;;;;5076208;28;1305;-68
2023/06/04 10:42:40;;;;;;;;;;;;;;;;;;5076648;28;821;-68
2023/06/04 10:45:07;;;;;;;;;;;;;;;;;;5076867;28;1235;-68
2023/06/04 10:47:33;;;;;;;;;;;;;;;;;;5095574;28;821;-68
2023/06/04 10:50:12;;;;;;;;;;;;;;;;;;5076952;28;841;-68
2023/06/04 10:52:39;;;;;;;;;;;;;;;;;;5077241;28;1089;-68
2023/06/04 10:55:06;;;;;;;;;;;;;;;;;;5076807;28;1938;-68
2023/06/04 10:57:32;;;;;;;;;;;;;;;;;;5095279;28;825;-68
2023/06/04 10:59:58;;;;;;;;;;;;;;;;;;5076395;28;1342;-68
2023/06/04 11:02:24;;;;;;;;;;;;;;;;;;5094586;28;837;-68
2023/06/04 11:05:05;;;;;;;;;;;;;;;;;;5076613;28;952;-68
2023/06/04 11:07:40;;;;;;;;;;;;;;;;;;5094240;28;1282;-68
2023/06/04 11:10:06;;;;;;;;;;;;;;;;;;5093603;28;896;-68
2023/06/04 11:12:40;;;;;;;;;;;;;;;;;;5076501;28;1223;-68
2023/06/04 11:15:06;;;;;;;;;;;;;;;;;;5075395;28;1975;-68
2023/06/04 11:17:31;;;;;;;;;;;;;;;;;;5076174;28;655;-68
2023/06/04 11:19:57;;;;;;;;;;;;;;;;;;5058997;28;1524;-68
2023/06/04 11:22:23;;;;;;;;;;;;;;;;;;5093068;28;921;-68
2023/06/04 11:24:49;;;;;;;;;;;;;;;;;;5093492;28;837;-68
2023/06/04 11:27:14;;;;;;;;;;;;;;;;;;5075060;28;901;-68
2023/06/04 11:29:40;;;;;;;;;;;;;;;;;;5075413;28;722;-68
2023/06/04 11:32:05;;;;;;;;;;;;;;;;;;5091945;28;914;-68
2023/06/04 11:34:32;;;;;;;;;;;;;;;;;;5093610;28;987;-68
2023/06/04 11:37:07;;;;;;;;;;;;;;;;;;5058306;28;1902;-68
2023/06/04 11:39:34;;;;;;;;;;;;;;;;;;5093472;28;984;-68
2023/06/04 11:42:04;;;;;;;;;;;;;;;;;;5093078;28;804;-68
2023/06/04 11:44:29;;;;;;;;;;;;;;;;;;5075055;28;1315;-65
2023/06/04 11:46:54;;;;;;;;;;;;;;;;;;5058282;28;1382;-65
2023/06/04 11:49:20;;;;;;;;;;;;;;;;;;5074643;28;1109;-65
2023/06/04 11:51:46;;;;;;;;;;;;;;;;;;5074960;28;1267;-65
2023/06/04 11:54:12;;;;;;;;;;;;;;;;;;5074267;28;1557;-65
2023/06/04 11:56:38;;;;;;;;;;;;;;;;;;5093160;28;1986;-65
2023/06/04 11:59:03;;;;;;;;;;;;;;;;;;5092727;28;948;-65
2023/06/04 12:01:30;;;;;;;;;;;;;;;;;;5074851;28;1248;-65
2023/06/04 12:03:55;;;;;;;;;;;;;;;;;;5058090;28;1370;-65
2023/06/04 12:06:21;;;;;;;;;;;;;;;;;;5082193;28;1153;-65
2023/06/04 12:08:47;;;;;;;;;;;;;;;;;;5052079;28;1349;-65
2023/06/04 12:11:26;;;;;;;;;;;;;;;;;;5053767;28;1165;-65
2023/06/04 12:13:52;;;;;;;;;;;;;;;;;;5072732;28;876;-65
2023/06/04 12:16:18;;;;;;;;;;;;;;;;;;5072246;28;1902;-65
2023/06/04 12:18:43;;;;;;;;;;;;;;;;;;5055544;28;1216;-64
2023/06/04 12:21:21;;;;;;;;;;;;;;;;;;5054404;28;1247;-65
2023/06/04 12:23:47;;;;;;;;;;;;;;;;;;5053579;28;1339;-64
2023/06/04 12:26:28;;;;;;;;;;;;;;;;;;5071390;28;931;-65
2023/06/04 12:29:00;;;;;;;;;;;;;;;;;;5056006;28;849;-65
2023/06/04 12:31:32;;;;;;;;;;;;;;;;;;5054630;28;1244;-65
2023/06/04 12:34:00;;;;;;;;;;;;;;;;;;5054627;28;1381;-65
2023/06/04 12:36:26;;;;;;;;;;;;;;;;;;5036766;28;2441;-64
2023/06/04 12:38:51;;;;;;;;;;;;;;;;;;5072240;28;1017;-64
2023/06/04 12:41:16;;;;;;;;;;;;;;;;;;5071055;28;853;-64
2023/06/04 12:43:42;;;;;;;;;;;;;;;;;;5054351;28;857;-64
2023/06/04 12:46:07;;;;;;;;;;;;;;;;;;5053543;28;826;-64
2023/06/04 12:48:33;;;;;;;;;;;;;;;;;;5054067;28;896;-65
2023/06/04 12:50:58;;;;;;;;;;;;;;;;;;5071589;28;900;-65
2023/06/04 12:53:23;;;;;;;;;;;;;;;;;;5053429;28;916;-65
2023/06/04 12:55:49;;;;;;;;;;;;;;;;;;5036845;28;1910;-64
2023/06/04 12:58:14;;;;;;;;;;;;;;;;;;5070941;28;853;-65
2023/06/04 13:00:39;;;;;;;;;;;;;;;;;;5053373;28;1369;-65
2023/06/04 13:03:05;;;;;;;;;;;;;;;;;;5036701;28;1196;-65
2023/06/04 13:05:31;;;;;;;;;;;;;;;;;;5036948;28;1535;-68
2023/06/04 13:07:56;;;;;;;;;;;;;;;;;;5071979;28;845;-68
2023/06/04 13:10:21;;;;;;;;;;;;;;;;;;5036668;28;694;-68
2023/06/04 13:12:47;;;;;;;;;;;;;;;;;;5053489;28;829;-68
2023/06/04 13:15:12;;;;;;;;;;;;;;;;;;5053343;28;1985;-65
2023/06/04 13:17:37;;;;;;;;;;;;;;;;;;5053243;28;1217;-65
2023/06/04 13:20:03;;;;;;;;;;;;;;;;;;5052949;28;872;-64
2023/06/04 13:22:28;;;;;;;;;;;;;;;;;;5052469;28;922;-63
2023/06/04 13:24:53;;;;;;;;;;;;;;;;;;5036656;28;1318;-63
2023/06/04 13:27:19;;;;;;;;;;;;;;;;;;5052487;28;738;-64
2023/06/04 13:29:44;;;;;;;;;;;;;;;;;;5053396;28;1282;-64
2023/06/04 13:32:10;;;;;;;;;;;;;;;;;;5052183;28;1330;-64
2023/06/04 13:34:35;;;;;;;;;;;;;;;;;;5053107;28;884;-64
2023/06/04 13:37:00;;;;;;;;;;;;;;;;;;5071714;28;1897;-64
2023/06/04 13:39:26;;;;;;;;;;;;;;;;;;5052858;28;861;-64
2023/06/04 13:41:51;;;;;;;;;;;;;;;;;;5071321;28;908;-65
2023/06/04 13:44:17;;;;;;;;;;;;;;;;;;5036059;28;1243;-64
2023/06/04 13:46:42;;;;;;;;;;;;;;;;;;5036460;28;1228;-64
2023/06/04 13:49:07;;;;;;;;;;;;;;;;;;5052593;28;786;-65
2023/06/04 13:51:33;;;;;;;;;;;;;;;;;;5071870;28;940;-68
2023/06/04 13:53:58;;;;;;;;;;;;;;;;;;5072191;28;853;-67
2023/06/04 13:56:25;;;;;;;;;;;;;;;;;;5071348;28;1971;-67
2023/06/04 13:58:50;;;;;;;;;;;;;;;;;;5072434;28;790;-68
2023/06/04 14:01:16;;;;;;;;;;;;;;;;;;5071468;28;1033;-68
2023/06/04 14:03:41;;;;;;;;;;;;;;;;;;5037239;28;1541;-67
2023/06/04 14:06:07;;;;;;;;;;;;;;;;;;5071210;28;844;-67
2023/06/04 14:08:32;;;;;;;;;;;;;;;;;;5071617;28;935;-67
2023/06/04 14:10:58;;;;;;;;;;;;;;;;;;5037286;28;1370;-67
2023/06/04 14:13:23;;;;;;;;;;;;;;;;;;5052707;28;884;-66
2023/06/04 14:15:48;;;;;;;;;;;;;;;;;;5071193;28;1918;-67
2023/06/04 14:18:13;;;;;;;;;;;;;;;;;;5070899;28;995;-67
2023/06/04 14:20:39;;;;;;;;;;;;;;;;;;5071200;28;849;-67
2023/06/04 14:23:04;;;;;;;;;;;;;;;;;;5053349;28;1001;-67
2023/06/04 14:25:29;;;;;;;;;;;;;;;;;;5036313;28;1342;-67
2023/06/04 14:27:55;;;;;;;;;;;;;;;;;;5071344;28;940;-68
2023/06/04 14:30:20;;;;;;;;;;;;;;;;;;5071103;28;809;-68
2023/06/04 14:32:45;;;;;;;;;;;;;;;;;;5071167;28;861;-67
2023/06/04 14:35:12;;;;;;;;;;;;;;;;;;5052834;28;1905;-67
2023/06/04 14:37:37;;;;;;;;;;;;;;;;;;5070758;28;861;-68
2023/06/04 14:40:03;;;;;;;;;;;;;;;;;;5070651;28;1243;-67
2023/06/04 14:42:28;;;;;;;;;;;;;;;;;;5070167;28;1164;-68
2023/06/04 14:44:53;;;;;;;;;;;;;;;;;;5053055;28;1379;-68
2023/06/04 14:47:19;;;;;;;;;;;;;;;;;;5034666;28;1331;-68
2023/06/04 14:49:44;;;;;;;;;;;;;;;;;;5052915;28;1137;-67
2023/06/04 14:52:10;;;;;;;;;;;;;;;;;;5052766;28;1035;-69
2023/06/04 14:54:35;;;;;;;;;;;;;;;;;;5052321;28;861;-69
2023/06/04 14:57:01;;;;;;;;;;;;;;;;;;5070241;28;1964;-69
2023/06/04 14:59:26;;;;;;;;;;;;;;;;;;5054628;28;1343;-68
2023/06/04 15:01:52;;;;;;;;;;;;;;;;;;5038091;28;1126;-69
2023/06/04 15:04:17;;;;;;;;;;;;;;;;;;5033503;28;809;-69
2023/06/04 15:06:43;;;;;;;;;;;;;;;;;;5034367;28;801;-69
2023/06/04 15:09:09;;;;;;;;;;;;;;;;;;5032274;28;908;-69
2023/06/04 15:11:34;;;;;;;;;;;;;;;;;;5033668;28;833;-69
2023/06/04 15:14:00;;;;;;;;;;;;;;;;;;5032406;28;1489;-69
2023/06/04 15:16:25;;;;;;;;;;;;;;;;;;5033448;28;1906;-69
2023/06/04 15:18:50;;;;;;;;;;;;;;;;;;5032226;28;1350;-70
2023/06/04 15:21:16;;;;;;;;;;;;;;;;;;5031846;28;1299;-69
2023/06/04 15:23:44;;;;;;;;;;;;;;;;;;5016563;28;1343;-69
2023/06/04 15:26:09;;;;;;;;;;;;;;;;;;5034130;28;834;-68
2023/06/04 15:28:34;;;;;;;;;;;;;;;;;;5017170;28;936;-69
2023/06/04 15:31:00;;;;;;;;;;;;;;;;;;5033189;28;1071;-67
2023/06/04 15:33:25;;;;;;;;;;;;;;;;;;5016013;28;912;-69
2023/06/04 15:35:50;;;;;;;;;;;;;;;;;;5033176;28;1906;-68
2023/06/04 15:38:16;;;;;;;;;;;;;;;;;;5016441;28;1252;-70
2023/06/04 15:40:41;;;;;;;;;;;;;;;;;;5033119;28;1169;-70
2023/06/04 15:43:07;;;;;;;;;;;;;;;;;;5032439;28;1272;-70
2023/06/04 15:45:35;;;;;;;;;;;;;;;;;;5033105;28;887;-69
2023/06/04 15:48:00;;;;;;;;;;;;;;;;;;5032496;28;881;-69
2023/06/04 15:50:26;;;;;;;;;;;;;;;;;;5015784;28;1300;-69
2023/06/04 15:52:51;;;;;;;;;;;;;;;;;;5015799;28;1358;-69
2023/06/04 15:55:16;;;;;;;;;;;;;;;;;;5033355;28;1906;-69
2023/06/04 15:57:42;;;;;;;;;;;;;;;;;;5032448;28;1188;-69
2023/06/04 16:00:07;;;;;;;;;;;;;;;;;;5015499;28;1236;-69
2023/06/04 16:02:33;;;;;;;;;;;;;;;;;;5054735;28;1311;-69
2023/06/04 16:04:58;;;;;;;;;;;;;;;;;;5056140;28;995;-69
2023/06/04 16:07:23;;;;;;;;;;;;;;;;;;5054823;28;1326;-69
2023/06/04 16:09:48;;;;;;;;;;;;;;;;;;5072974;28;897;-69
2023/06/04 16:12:14;;;;;;;;;;;;;;;;;;5054501;28;837;-69
2023/06/04 16:14:40;;;;;;;;;;;;;;;;;;5054255;28;1461;-69
2023/06/04 16:17:05;;;;;;;;;;;;;;;;;;5054767;28;2239;-69
2023/06/04 16:19:31;;;;;;;;;;;;;;;;;;5054677;28;841;-69
2023/06/04 16:21:56;;;;;;;;;;;;;;;;;;5073020;28;896;-69
2023/06/04 16:24:21;;;;;;;;;;;;;;;;;;5054805;28;1227;-69
2023/06/04 16:26:47;;;;;;;;;;;;;;;;;;5072567;28;821;-68
2023/06/04 16:29:12;;;;;;;;;;;;;;;;;;5055711;28;1169;-69
2023/06/04 16:31:37;;;;;;;;;;;;;;;;;;5037434;28;1223;-69
2023/06/04 16:34:02;;;;;;;;;;;;;;;;;;5072966;28;777;-69
2023/06/04 16:36:28;;;;;;;;;;;;;;;;;;5053637;28;1968;-69
2023/06/04 16:38:53;;;;;;;;;;;;;;;;;;5054756;28;894;-68
2023/06/04 16:41:18;;;;;;;;;;;;;;;;;;5072033;28;844;-69
2023/06/04 16:43:44;;;;;;;;;;;;;;;;;;5037445;28;1493;-65
2023/06/04 16:46:09;;;;;;;;;;;;;;;;;;5037176;28;1326;-65
2023/06/04 16:48:34;;;;;;;;;;;;;;;;;;5071536;28;916;-65
2023/06/04 16:51:00;;;;;;;;;;;;;;;;;;5037856;28;1427;-69
2023/06/04 16:53:25;;;;;;;;;;;;;;;;;;5053988;28;833;-70
2023/06/04 16:55:50;;;;;;;;;;;;;;;;;;5053837;28;1960;-70
2023/06/04 16:58:16;;;;;;;;;;;;;;;;;;5037246;28;1370;-69
2023/06/04 17:00:41;;;;;;;;;;;;;;;;;;5046008;28;1090;-69
2023/06/04 17:03:06;;;;;;;;;;;;;;;;;;5032150;28;920;-69